Time;durP1;ratioP1;P1;durP2;ratioP2;P2;SDS_P1;SDS_P2;PMS_P1;PMS_P2;Temp;Humidity;BMP_temperature;BMP_pressure;BME280_temperature;BME280_humidity;BME280_pressure;Samples;Min_cycle;Max_cycle;Signal;HPM_P1;HPM_P2
2023/10/15 00:00:07;;;;;;;;;;;;;;;-128.00;-1.00;-1.00;105955;1249;1003866;-68
2023/10/15 00:02:34;;;;;;;;;;;;;;;-128.00;-1.00;-1.00;105941;1249;1062023;-68
2023/10/15 00:05:01;;;;;;;;;;;;;;;-128.00;-1.00;-1.00;105943;1249;1003978;-68
2023/10/15 00:07:27;;;;;;;;;;;;;;;-128.00;-1.00;-1.00;105939;1249;1005426;-68
2023/10/15 00:09:54;;;;;;;;;;;;;;;-128.00;-1.00;-1.00;105904;1249;1004614;-68
2023/10/15 00:12:20;;;;;;;;;;;;;;;-128.00;-1.00;-1.00;105962;1249;1004366;-68
2023/10/15 00:14:47;;;;;;;;;;;;;;;-128.00;-1.00;-1.00;105957;1250;1003684;-67
2023/10/15 00:17:13;;;;;;;;;;;;;;;-128.00;-1.00;-1.00;105917;1249;1004521;-67
2023/10/15 00:19:39;;;;;;;;;;;;;;;-128.00;-1.00;-1.00;105911;1249;1004798;-68
2023/10/15 00:22:07;;;;;;;;;;;;;;;-128.00;-1.00;-1.00;105930;1249;1005172;-67
2023/10/15 00:24:33;;;;;;;;;;;;;;;-128.00;-1.00;-1.00;105956;1249;1004400;-67
2023/10/15 00:27:00;;;;;;;;;;;;;;;-128.00;-1.00;-1.00;105938;1250;1004138;-68
2023/10/15 00:29:26;;;;;;;;;;;;;;;-128.00;-1.00;-1.00;105992;1249;1004378;-68
2023/10/15 00:31:52;;;;;;;;;;;;;;;-128.00;-1.00;-1.00;105932;1249;1005226;-68
2023/10/15 00:34:20;;;;;;;;;;;;;;;-128.00;-1.00;-1.00;105917;1249;1003655;-68
2023/10/15 00:36:48;;;;;;;;;;;;;;;-128.00;-1.00;-1.00;105984;1249;1003886;-68
2023/10/15 00:39:21;;;;;;;;;;;;;;;-128.00;-1.00;-1.00;105957;1249;1003971;-68
2023/10/15 00:41:47;;;;;;;;;;;;;;;-128.00;-1.00;-1.00;105946;1249;1054523;-68
2023/10/15 00:44:14;;;;;;;;;;;;;;;-128.00;-1.00;-1.00;105900;1249;1005062;-68
2023/10/15 00:46:40;;;;;;;;;;;;;;;-128.00;-1.00;-1.00;105728;1249;1005068;-68
2023/10/15 00:49:14;;;;;;;;;;;;;;;-128.00;-1.00;-1.00;105965;1250;1005079;-68
2023/10/15 00:51:44;;;;;;;;;;;;;;;-128.00;-1.00;-1.00;105932;1250;1062712;-68
2023/10/15 00:54:15;;;;;;;;;;;;;;;-128.00;-1.00;-1.00;105950;1249;1056242;-68
2023/10/15 00:56:44;;;;;;;;;;;;;;;-128.00;-1.00;-1.00;105896;1250;1059292;-68
2023/10/15 00:59:18;;;;;;;;;;;;;;;-128.00;-1.00;-1.00;105869;1249;1047312;-68
2023/10/15 01:02:03;;;;;;;;;;;;;;;-128.00;-1.00;-1.00;105990;1249;1046943;-68
2023/10/15 01:04:34;;;;;;;;;;;;;;;-128.00;-1.00;-1.00;105963;1249;1062777;-68
2023/10/15 01:07:13;;;;;;;;;;;;;;;-128.00;-1.00;-1.00;105985;1249;1056395;-68
2023/10/15 01:09:40;;;;;;;;;;;;;;;-128.00;-1.00;-1.00;105732;1252;1061242;-68
2023/10/15 01:12:39;;;;;;;;;;;;;;;-128.00;-1.00;-1.00;105677;1253;1003830;-68
2023/10/15 01:14:59;;;;;;;;;;;;;;;-128.00;-1.00;-1.00;105683;1253;1046401;-68
2023/10/15 01:17:36;;;;;;;;;;;;;;;-128.00;-1.00;-1.00;105706;1253;1003953;-68
2023/10/15 01:20:05;;;;;;;;;;;;;;;-128.00;-1.00;-1.00;105705;1253;1056445;-68
2023/10/15 01:22:32;;;;;;;;;;;;;;;-128.00;-1.00;-1.00;105461;1253;1059404;-68
2023/10/15 01:25:09;;;;;;;;;;;;;;;-128.00;-1.00;-1.00;105714;1253;1003892;-68
2023/10/15 01:27:36;;;;;;;;;;;;;;;-128.00;-1.00;-1.00;105672;1253;1048068;-68
2023/10/15 01:30:03;;;;;;;;;;;;;;;-128.00;-1.00;-1.00;105710;1253;1006100;-68
2023/10/15 01:32:38;;;;;;;;;;;;;;;-128.00;-1.00;-1.00;105704;1253;1004964;-68
2023/10/15 01:35:10;;;;;;;;;;;;;;;-128.00;-1.00;-1.00;105713;1253;1059565;-68
2023/10/15 01:37:37;;;;;;;;;;;;;;;-128.00;-1.00;-1.00;105709;1252;1047143;-68
2023/10/15 01:40:37;;;;;;;;;;;;;;;-128.00;-1.00;-1.00;105705;1250;1003683;-68
2023/10/15 01:42:56;;;;;;;;;;;;;;;-128.00;-1.00;-1.00;105883;1249;1062938;-68
2023/10/15 01:45:32;;;;;;;;;;;;;;;-128.00;-1.00;-1.00;105946;1249;1004067;-68
2023/10/15 01:48:04;;;;;;;;;;;;;;;-128.00;-1.00;-1.00;105925;1249;1059727;-68
2023/10/15 01:50:52;;;;;;;;;;;;;;;-128.00;-1.00;-1.00;105913;1249;1045940;-68
2023/10/15 01:53:23;;;;;;;;;;;;;;;-128.00;-1.00;-1.00;105904;1249;1047513;-68
2023/10/15 01:55:56;;;;;;;;;;;;;;;-128.00;-1.00;-1.00;105920;1249;1061853;-68
2023/10/15 01:58:32;;;;;;;;;;;;;;;-128.00;-1.00;-1.00;105911;1249;1055954;-68
2023/10/15 02:01:13;;;;;;;;;;;;;;;-128.00;-1.00;-1.00;105920;1250;1059093;-68
2023/10/15 02:03:41;;;;;;;;;;;;;;;-128.00;-1.00;-1.00;105901;1249;1048844;-68
2023/10/15 02:06:08;;;;;;;;;;;;;;;-128.00;-1.00;-1.00;105941;1249;1004066;-68
2023/10/15 02:08:40;;;;;;;;;;;;;;;-128.00;-1.00;-1.00;105923;1250;1004630;-68
2023/10/15 02:11:21;;;;;;;;;;;;;;;-128.00;-1.00;-1.00;105971;1249;1055633;-68
2023/10/15 02:13:48;;;;;;;;;;;;;;;-128.00;-1.00;-1.00;105927;1250;1058875;-68
2023/10/15 02:16:37;;;;;;;;;;;;;;;-128.00;-1.00;-1.00;105917;1250;1004591;-68
2023/10/15 02:19:07;;;;;;;;;;;;;;;-128.00;-1.00;-1.00;105975;1250;1046238;-68
2023/10/15 02:21:49;;;;;;;;;;;;;;;-128.00;-1.00;-1.00;105939;1251;1061979;-68
2023/10/15 02:24:15;;;;;;;;;;;;;;;-128.00;-1.00;-1.00;105924;1253;1055608;-68
2023/10/15 02:26:42;;;;;;;;;;;;;;;-128.00;-1.00;-1.00;105897;1249;1004548;-68
2023/10/15 02:29:27;;;;;;;;;;;;;;;-128.00;-1.00;-1.00;105916;1250;1004305;-68
2023/10/15 02:31:54;;;;;;;;;;;;;;;-128.00;-1.00;-1.00;105927;1250;1047346;-68
2023/10/15 02:34:27;;;;;;;;;;;;;;;-128.00;-1.00;-1.00;105901;1250;1004051;-68
2023/10/15 02:36:54;;;;;;;;;;;;;;;-128.00;-1.00;-1.00;105916;1250;1055088;-68
2023/10/15 02:39:22;;;;;;;;;;;;;;;-128.00;-1.00;-1.00;105934;1250;1004553;-68
2023/10/15 02:41:48;;;;;;;;;;;;;;;-128.00;-1.00;-1.00;105923;1249;1003705;-68
2023/10/15 02:44:17;;;;;;;;;;;;;;;-128.00;-1.00;-1.00;105944;1249;1003576;-68
2023/10/15 02:46:47;;;;;;;;;;;;;;;-128.00;-1.00;-1.00;105916;1250;1064257;-68
2023/10/15 02:49:15;;;;;;;;;;;;;;;-128.00;-1.00;-1.00;105931;1249;1055049;-68
2023/10/15 02:51:42;;;;;;;;;;;;;;;-128.00;-1.00;-1.00;105896;1249;1004316;-68
2023/10/15 02:56:56;;;;;;;;;;;;;;;-128.00;-1.00;-1.00;105914;1250;1046136;-67
2023/10/15 02:59:23;;;;;;;;;;;;;;;-128.00;-1.00;-1.00;105931;1249;1062547;-68
2023/10/15 03:01:54;;;;;;;;;;;;;;;-128.00;-1.00;-1.00;105945;1249;1003821;-68
2023/10/15 03:04:32;;;;;;;;;;;;;;;-128.00;-1.00;-1.00;105919;1250;1058829;-67
2023/10/15 03:07:17;;;;;;;;;;;;;;;-128.00;-1.00;-1.00;105902;1249;1046363;-67
2023/10/15 03:09:44;;;;;;;;;;;;;;;-128.00;-1.00;-1.00;105623;1250;1048175;-68
2023/10/15 03:12:14;;;;;;;;;;;;;;;-128.00;-1.00;-1.00;105957;1250;1003904;-68
2023/10/15 03:14:43;;;;;;;;;;;;;;;-128.00;-1.00;-1.00;105911;1250;1055431;-68
2023/10/15 03:17:14;;;;;;;;;;;;;;;-128.00;-1.00;-1.00;105936;1249;1059838;-67
2023/10/15 03:19:42;;;;;;;;;;;;;;;-128.00;-1.00;-1.00;105861;1249;1046174;-67
2023/10/15 03:22:12;;;;;;;;;;;;;;;-128.00;-1.00;-1.00;105899;1249;1004700;-67
2023/10/15 03:24:40;;;;;;;;;;;;;;;-128.00;-1.00;-1.00;105945;1249;1061217;-67
2023/10/15 03:27:07;;;;;;;;;;;;;;;-128.00;-1.00;-1.00;105923;1250;1004110;-68
2023/10/15 03:29:33;;;;;;;;;;;;;;;-128.00;-1.00;-1.00;105903;1250;1005545;-67
2023/10/15 03:32:09;;;;;;;;;;;;;;;-128.00;-1.00;-1.00;105907;1250;1003579;-68
2023/10/15 03:34:42;;;;;;;;;;;;;;;-128.00;-1.00;-1.00;105910;1250;1047068;-68
2023/10/15 03:37:13;;;;;;;;;;;;;;;-128.00;-1.00;-1.00;105928;1249;1063004;-67
2023/10/15 03:44:47;;;;;;;;;;;;;;;-128.00;-1.00;-1.00;105907;1249;1048627;-68
2023/10/15 03:47:14;;;;;;;;;;;;;;;-128.00;-1.00;-1.00;105872;1249;1047168;-68
2023/10/15 03:49:40;;;;;;;;;;;;;;;-128.00;-1.00;-1.00;105752;1250;1004026;-67
2023/10/15 03:52:08;;;;;;;;;;;;;;;-128.00;-1.00;-1.00;105963;1249;1004049;-67
2023/10/15 03:54:37;;;;;;;;;;;;;;;-128.00;-1.00;-1.00;105930;1250;1003987;-67
2023/10/15 03:57:06;;;;;;;;;;;;;;;-128.00;-1.00;-1.00;105910;1249;1045756;-67
2023/10/15 03:59:42;;;;;;;;;;;;;;;-128.00;-1.00;-1.00;105950;1249;1047083;-68
2023/10/15 04:02:11;;;;;;;;;;;;;;;-128.00;-1.00;-1.00;105769;1257;1061975;-67
2023/10/15 04:04:38;;;;;;;;;;;;;;;-128.00;-1.00;-1.00;105903;1250;1055588;-67
2023/10/15 04:07:19;;;;;;;;;;;;;;;-128.00;-1.00;-1.00;105913;1250;1004997;-68
2023/10/15 04:09:45;;;;;;;;;;;;;;;-128.00;-1.00;-1.00;105919;1253;1045799;-68
2023/10/15 04:12:12;;;;;;;;;;;;;;;-128.00;-1.00;-1.00;105927;1249;1004235;-68
2023/10/15 04:14:43;;;;;;;;;;;;;;;-128.00;-1.00;-1.00;105902;1249;1004657;-68
2023/10/15 04:17:09;;;;;;;;;;;;;;;-128.00;-1.00;-1.00;105904;1249;1055694;-68
2023/10/15 04:19:36;;;;;;;;;;;;;;;-128.00;-1.00;-1.00;105875;1250;1003975;-68
2023/10/15 04:22:36;;;;;;;;;;;;;;;-128.00;-1.00;-1.00;105930;1249;1003443;-68
2023/10/15 04:24:54;;;;;;;;;;;;;;;-128.00;-1.00;-1.00;105911;1249;1046406;-68
2023/10/15 04:27:26;;;;;;;;;;;;;;;-128.00;-1.00;-1.00;105899;1253;1004075;-68
2023/10/15 04:29:55;;;;;;;;;;;;;;;-128.00;-1.00;-1.00;105935;1249;1056623;-69
2023/10/15 04:32:45;;;;;;;;;;;;;;;-128.00;-1.00;-1.00;105891;1250;1061315;-68
2023/10/15 04:35:18;;;;;;;;;;;;;;;-128.00;-1.00;-1.00;105898;1253;1044840;-69
2023/10/15 04:37:45;;;;;;;;;;;;;;;-128.00;-1.00;-1.00;105977;1250;1047256;-69
2023/10/15 04:40:12;;;;;;;;;;;;;;;-128.00;-1.00;-1.00;105961;1250;1004877;-68
2023/10/15 04:42:48;;;;;;;;;;;;;;;-128.00;-1.00;-1.00;105931;1250;1004213;-67
2023/10/15 04:45:21;;;;;;;;;;;;;;;-128.00;-1.00;-1.00;105897;1250;1059408;-67
2023/10/15 04:47:51;;;;;;;;;;;;;;;-128.00;-1.00;-1.00;105915;1250;1047569;-67
2023/10/15 04:50:18;;;;;;;;;;;;;;;-128.00;-1.00;-1.00;105886;1250;1046785;-68
2023/10/15 04:52:44;;;;;;;;;;;;;;;-128.00;-1.00;-1.00;105930;1250;1005476;-68
2023/10/15 04:55:13;;;;;;;;;;;;;;;-128.00;-1.00;-1.00;105939;1250;1005616;-67
2023/10/15 04:57:39;;;;;;;;;;;;;;;-128.00;-1.00;-1.00;105903;1249;1059711;-68
2023/10/15 05:00:06;;;;;;;;;;;;;;;-128.00;-1.00;-1.00;105892;1250;1004326;-68
2023/10/15 05:02:34;;;;;;;;;;;;;;;-128.00;-1.00;-1.00;105904;1250;1004366;-68
2023/10/15 05:05:00;;;;;;;;;;;;;;;-128.00;-1.00;-1.00;105919;1250;1004922;-69
2023/10/15 05:07:27;;;;;;;;;;;;;;;-128.00;-1.00;-1.00;105953;1251;1004541;-68
2023/10/15 05:09:57;;;;;;;;;;;;;;;-128.00;-1.00;-1.00;105968;1251;1004180;-68
2023/10/15 05:12:24;;;;;;;;;;;;;;;-128.00;-1.00;-1.00;105887;1249;1046816;-68
2023/10/15 05:14:51;;;;;;;;;;;;;;;-128.00;-1.00;-1.00;105922;1250;1004544;-68
2023/10/15 05:17:17;;;;;;;;;;;;;;;-128.00;-1.00;-1.00;105935;1249;1003680;-68
2023/10/15 05:19:44;;;;;;;;;;;;;;;-128.00;-1.00;-1.00;105899;1251;1004127;-69
2023/10/15 05:22:10;;;;;;;;;;;;;;;-128.00;-1.00;-1.00;105911;1251;1005143;-69
2023/10/15 05:24:37;;;;;;;;;;;;;;;-128.00;-1.00;-1.00;105881;1251;1004128;-68
2023/10/15 05:27:03;;;;;;;;;;;;;;;-128.00;-1.00;-1.00;105921;1251;1004093;-68
2023/10/15 05:29:31;;;;;;;;;;;;;;;-128.00;-1.00;-1.00;105896;1250;1004504;-69
2023/10/15 05:31:57;;;;;;;;;;;;;;;-128.00;-1.00;-1.00;105960;1250;1004534;-68
2023/10/15 05:34:24;;;;;;;;;;;;;;;-128.00;-1.00;-1.00;105768;1251;1004894;-68
2023/10/15 05:36:50;;;;;;;;;;;;;;;-128.00;-1.00;-1.00;105900;1250;1003756;-69
2023/10/15 05:39:18;;;;;;;;;;;;;;;-128.00;-1.00;-1.00;105911;1251;1004016;-68
2023/10/15 05:41:44;;;;;;;;;;;;;;;-128.00;-1.00;-1.00;105950;1250;1003360;-68
2023/10/15 05:44:11;;;;;;;;;;;;;;;-128.00;-1.00;-1.00;105894;1253;1004845;-68
2023/10/15 05:46:37;;;;;;;;;;;;;;;-128.00;-1.00;-1.00;105882;1251;1004650;-68
2023/10/15 05:49:05;;;;;;;;;;;;;;;-128.00;-1.00;-1.00;105924;1249;1005084;-69
2023/10/15 05:51:32;;;;;;;;;;;;;;;-128.00;-1.00;-1.00;105918;1253;1003655;-68
2023/10/15 05:53:59;;;;;;;;;;;;;;;-128.00;-1.00;-1.00;105915;1252;1003893;-68
2023/10/15 05:56:27;;;;;;;;;;;;;;;-128.00;-1.00;-1.00;105917;1252;1004373;-69
2023/10/15 05:58:53;;;;;;;;;;;;;;;-128.00;-1.00;-1.00;105901;1249;1004676;-69
2023/10/15 06:01:20;;;;;;;;;;;;;;;-128.00;-1.00;-1.00;105908;1251;1005315;-69
2023/10/15 06:03:46;;;;;;;;;;;;;;;-128.00;-1.00;-1.00;105956;1253;1004436;-69
2023/10/15 06:06:13;;;;;;;;;;;;;;;-128.00;-1.00;-1.00;105904;1251;1004023;-68
2023/10/15 06:08:39;;;;;;;;;;;;;;;-128.00;-1.00;-1.00;105900;1250;1003759;-68
2023/10/15 06:11:06;;;;;;;;;;;;;;;-128.00;-1.00;-1.00;105900;1251;1006160;-69
2023/10/15 06:13:33;;;;;;;;;;;;;;;-128.00;-1.00;-1.00;105885;1253;1003836;-68
2023/10/15 06:16:00;;;;;;;;;;;;;;;-128.00;-1.00;-1.00;105929;1250;1004170;-68
2023/10/15 06:18:27;;;;;;;;;;;;;;;-128.00;-1.00;-1.00;105906;1251;1004571;-68
2023/10/15 06:20:54;;;;;;;;;;;;;;;-128.00;-1.00;-1.00;105910;1253;1005590;-68
2023/10/15 06:23:20;;;;;;;;;;;;;;;-128.00;-1.00;-1.00;105871;1250;1004285;-69
2023/10/15 06:25:47;;;;;;;;;;;;;;;-128.00;-1.00;-1.00;105908;1250;1004753;-68
2023/10/15 06:28:16;;;;;;;;;;;;;;;-128.00;-1.00;-1.00;105945;1250;1005480;-69
2023/10/15 06:30:44;;;;;;;;;;;;;;;-128.00;-1.00;-1.00;105923;1250;1061790;-69
2023/10/15 06:33:11;;;;;;;;;;;;;;;-128.00;-1.00;-1.00;105921;1251;1004970;-70
2023/10/15 06:35:40;;;;;;;;;;;;;;;-128.00;-1.00;-1.00;105891;1250;1004460;-68
2023/10/15 06:38:06;;;;;;;;;;;;;;;-128.00;-1.00;-1.00;105941;1250;1045753;-69
2023/10/15 06:40:32;;;;;;;;;;;;;;;-128.00;-1.00;-1.00;105931;1250;1004406;-68
2023/10/15 06:43:02;;;;;;;;;;;;;;;-128.00;-1.00;-1.00;105932;1251;1004590;-68
2023/10/15 06:45:31;;;;;;;;;;;;;;;-128.00;-1.00;-1.00;105829;1250;1056950;-68
2023/10/15 06:47:58;;;;;;;;;;;;;;;-128.00;-1.00;-1.00;105909;1249;1059197;-68
2023/10/15 06:50:24;;;;;;;;;;;;;;;-128.00;-1.00;-1.00;105943;1251;1004530;-68
2023/10/15 06:52:52;;;;;;;;;;;;;;;-128.00;-1.00;-1.00;105960;1251;1005010;-68
2023/10/15 06:55:21;;;;;;;;;;;;;;;-128.00;-1.00;-1.00;105926;1251;1004197;-68
2023/10/15 06:57:48;;;;;;;;;;;;;;;-128.00;-1.00;-1.00;105934;1253;1056058;-68
2023/10/15 07:00:21;;;;;;;;;;;;;;;-128.00;-1.00;-1.00;105906;1249;1004268;-68
2023/10/15 07:02:48;;;;;;;;;;;;;;;-128.00;-1.00;-1.00;105766;1251;1045973;-68
2023/10/15 07:05:19;;;;;;;;;;;;;;;-128.00;-1.00;-1.00;105938;1251;1004485;-69
2023/10/15 07:07:46;;;;;;;;;;;;;;;-128.00;-1.00;-1.00;105931;1249;1062117;-68
2023/10/15 07:10:15;;;;;;;;;;;;;;;-128.00;-1.00;-1.00;105949;1250;1005033;-68
2023/10/15 07:12:43;;;;;;;;;;;;;;;-128.00;-1.00;-1.00;105948;1249;1059472;-68
2023/10/15 07:15:09;;;;;;;;;;;;;;;-128.00;-1.00;-1.00;105931;1249;1004873;-68
2023/10/15 07:17:38;;;;;;;;;;;;;;;-128.00;-1.00;-1.00;105974;1249;1003947;-68
2023/10/15 07:20:14;;;;;;;;;;;;;;;-128.00;-1.00;-1.00;105969;1250;1062972;-68
2023/10/15 07:22:42;;;;;;;;;;;;;;;-128.00;-1.00;-1.00;105955;1249;1057516;-68
2023/10/15 07:25:08;;;;;;;;;;;;;;;-128.00;-1.00;-1.00;105934;1249;1004484;-68
2023/10/15 07:27:35;;;;;;;;;;;;;;;-128.00;-1.00;-1.00;105914;1250;1003819;-67
2023/10/15 07:30:02;;;;;;;;;;;;;;;-128.00;-1.00;-1.00;105794;1251;1003461;-68
2023/10/15 07:32:28;;;;;;;;;;;;;;;-128.00;-1.00;-1.00;105933;1250;1004074;-68
2023/10/15 07:34:55;;;;;;;;;;;;;;;-128.00;-1.00;-1.00;105960;1250;1004224;-68
2023/10/15 07:37:21;;;;;;;;;;;;;;;-128.00;-1.00;-1.00;105908;1250;1004891;-68
2023/10/15 07:39:47;;;;;;;;;;;;;;;-128.00;-1.00;-1.00;105899;1249;1004721;-68
2023/10/15 07:42:14;;;;;;;;;;;;;;;-128.00;-1.00;-1.00;105967;1249;1005673;-68
2023/10/15 07:44:40;;;;;;;;;;;;;;;-128.00;-1.00;-1.00;105911;1249;1003198;-68
2023/10/15 07:47:06;;;;;;;;;;;;;;;-128.00;-1.00;-1.00;105943;1249;1004661;-67
2023/10/15 07:49:33;;;;;;;;;;;;;;;-128.00;-1.00;-1.00;105902;1251;1046736;-67
2023/10/15 07:51:59;;;;;;;;;;;;;;;-128.00;-1.00;-1.00;105930;1249;1003525;-68
2023/10/15 07:54:25;;;;;;;;;;;;;;;-128.00;-1.00;-1.00;105912;1250;1004463;-68
2023/10/15 07:56:54;;;;;;;;;;;;;;;-128.00;-1.00;-1.00;105894;1250;1005287;-67
2023/10/15 07:59:21;;;;;;;;;;;;;;;-128.00;-1.00;-1.00;105928;1250;1059668;-69
2023/10/15 08:01:47;;;;;;;;;;;;;;;-128.00;-1.00;-1.00;105875;1251;1005421;-68
2023/10/15 08:04:13;;;;;;;;;;;;;;;-128.00;-1.00;-1.00;106007;1249;1004121;-68
2023/10/15 08:06:40;;;;;;;;;;;;;;;-128.00;-1.00;-1.00;105907;1250;1005409;-67
2023/10/15 08:09:09;;;;;;;;;;;;;;;-128.00;-1.00;-1.00;105922;1250;1004551;-68
2023/10/15 08:11:36;;;;;;;;;;;;;;;-128.00;-1.00;-1.00;105920;1249;1058624;-68
2023/10/15 08:14:02;;;;;;;;;;;;;;;-128.00;-1.00;-1.00;105953;1250;1004422;-68
2023/10/15 08:16:29;;;;;;;;;;;;;;;-128.00;-1.00;-1.00;105977;1249;1005460;-68
2023/10/15 08:18:55;;;;;;;;;;;;;;;-128.00;-1.00;-1.00;105775;1249;1005055;-68
2023/10/15 08:21:22;;;;;;;;;;;;;;;-128.00;-1.00;-1.00;105911;1249;1005127;-68
2023/10/15 08:23:50;;;;;;;;;;;;;;;-128.00;-1.00;-1.00;105932;1251;1004942;-68
2023/10/15 08:26:16;;;;;;;;;;;;;;;-128.00;-1.00;-1.00;105955;1249;1004527;-68
2023/10/15 08:28:42;;;;;;;;;;;;;;;-128.00;-1.00;-1.00;105947;1250;1004456;-68
2023/10/15 08:31:09;;;;;;;;;;;;;;;-128.00;-1.00;-1.00;105913;1250;1004476;-68
2023/10/15 08:33:35;;;;;;;;;;;;;;;-128.00;-1.00;-1.00;105939;1250;1003736;-68
2023/10/15 08:36:02;;;;;;;;;;;;;;;-128.00;-1.00;-1.00;105882;1250;1003670;-67
2023/10/15 08:38:29;;;;;;;;;;;;;;;-128.00;-1.00;-1.00;105907;1249;1004519;-67
2023/10/15 08:40:55;;;;;;;;;;;;;;;-128.00;-1.00;-1.00;105988;1249;1004663;-67
2023/10/15 08:43:23;;;;;;;;;;;;;;;-128.00;-1.00;-1.00;105946;1251;1005096;-67
2023/10/15 08:45:52;;;;;;;;;;;;;;;-128.00;-1.00;-1.00;105867;1251;1003714;-67
2023/10/15 08:48:19;;;;;;;;;;;;;;;-128.00;-1.00;-1.00;105886;1250;1059036;-67
2023/10/15 08:50:46;;;;;;;;;;;;;;;-128.00;-1.00;-1.00;105903;1250;1003805;-67
2023/10/15 08:53:16;;;;;;;;;;;;;;;-128.00;-1.00;-1.00;105938;1249;1004869;-67
2023/10/15 08:55:43;;;;;;;;;;;;;;;-128.00;-1.00;-1.00;105998;1250;1061983;-66
2023/10/15 08:58:09;;;;;;;;;;;;;;;-128.00;-1.00;-1.00;105979;1250;1005625;-66
2023/10/15 09:00:39;;;;;;;;;;;;;;;-128.00;-1.00;-1.00;105938;1250;1004281;-67
2023/10/15 09:03:05;;;;;;;;;;;;;;;-128.00;-1.00;-1.00;105935;1250;1044887;-67
2023/10/15 09:05:40;;;;;;;;;;;;;;;-128.00;-1.00;-1.00;105906;1250;1004676;-67
2023/10/15 09:08:07;;;;;;;;;;;;;;;-128.00;-1.00;-1.00;105802;1251;1062455;-67
2023/10/15 09:10:41;;;;;;;;;;;;;;;-128.00;-1.00;-1.00;105859;1250;1003806;-67
2023/10/15 09:13:14;;;;;;;;;;;;;;;-128.00;-1.00;-1.00;105874;1250;1058622;-67
2023/10/15 09:15:45;;;;;;;;;;;;;;;-128.00;-1.00;-1.00;105840;1250;1044983;-68
2023/10/15 09:18:13;;;;;;;;;;;;;;;-128.00;-1.00;-1.00;105812;1250;1046421;-68
2023/10/15 09:20:51;;;;;;;;;;;;;;;-128.00;-1.00;-1.00;105687;1250;1061831;-67
2023/10/15 09:23:21;;;;;;;;;;;;;;;-128.00;-1.00;-1.00;105821;1250;1055743;-67
2023/10/15 09:25:51;;;;;;;;;;;;;;;-128.00;-1.00;-1.00;105813;1250;1060104;-68
2023/10/15 09:28:17;;;;;;;;;;;;;;;-128.00;-1.00;-1.00;105833;1250;1045000;-68
2023/10/15 09:30:46;;;;;;;;;;;;;;;-128.00;-1.00;-1.00;105787;1250;1004213;-68
2023/10/15 09:33:16;;;;;;;;;;;;;;;-128.00;-1.00;-1.00;105822;1250;1062920;-68
2023/10/15 09:35:43;;;;;;;;;;;;;;;-128.00;-1.00;-1.00;105824;1250;1054414;-66
2023/10/15 09:38:13;;;;;;;;;;;;;;;-128.00;-1.00;-1.00;105875;1250;1004257;-67
2023/10/15 09:40:43;;;;;;;;;;;;;;;-128.00;-1.00;-1.00;105794;1250;1043746;-66
2023/10/15 09:43:10;;;;;;;;;;;;;;;-128.00;-1.00;-1.00;105811;1250;1046518;-67
2023/10/15 09:45:36;;;;;;;;;;;;;;;-128.00;-1.00;-1.00;105838;1250;1005244;-67
2023/10/15 09:48:03;;;;;;;;;;;;;;;-128.00;-1.00;-1.00;105827;1250;1004151;-68
2023/10/15 09:50:32;;;;;;;;;;;;;;;-128.00;-1.00;-1.00;105815;1250;1004079;-67
2023/10/15 09:53:09;;;;;;;;;;;;;;;-128.00;-1.00;-1.00;105811;1250;1045695;-67
2023/10/15 09:55:35;;;;;;;;;;;;;;;-128.00;-1.00;-1.00;105865;1250;1046852;-67
2023/10/15 09:58:06;;;;;;;;;;;;;;;-128.00;-1.00;-1.00;105827;1250;1004118;-67
2023/10/15 10:03:32;;;;;;;;;;;;;;;-128.00;-1.00;-1.00;105778;1250;1058308;-67
2023/10/15 10:06:11;;;;;;;;;;;;;;;-128.00;-1.00;-1.00;105758;1250;1045913;-68
2023/10/15 10:08:56;;;;;;;;;;;;;;;-128.00;-1.00;-1.00;105804;1250;1045544;-67
2023/10/15 10:11:31;;;;;;;;;;;;;;;-128.00;-1.00;-1.00;105814;1250;1064231;-68
2023/10/15 10:14:02;;;;;;;;;;;;;;;-128.00;-1.00;-1.00;105799;1250;1056475;-68
2023/10/15 10:16:30;;;;;;;;;;;;;;;-128.00;-1.00;-1.00;105801;1250;1059957;-68
2023/10/15 10:18:57;;;;;;;;;;;;;;;-128.00;-1.00;-1.00;105785;1250;1004293;-67
2023/10/15 10:21:27;;;;;;;;;;;;;;;-128.00;-1.00;-1.00;105851;1250;1004305;-68
2023/10/15 10:23:58;;;;;;;;;;;;;;;-128.00;-1.00;-1.00;105816;1250;1063590;-67
2023/10/15 10:26:26;;;;;;;;;;;;;;;-128.00;-1.00;-1.00;105807;1250;1055981;-67
2023/10/15 10:28:55;;;;;;;;;;;;;;;-128.00;-1.00;-1.00;105762;1250;1058325;-67
2023/10/15 10:31:22;;;;;;;;;;;;;;;-128.00;-1.00;-1.00;105770;1250;1045006;-67
2023/10/15 10:33:49;;;;;;;;;;;;;;;-128.00;-1.00;-1.00;105916;1250;1005078;-67
2023/10/15 10:36:17;;;;;;;;;;;;;;;-128.00;-1.00;-1.00;105824;1250;1004423;-67
2023/10/15 10:38:55;;;;;;;;;;;;;;;-128.00;-1.00;-1.00;105887;1250;1006279;-67
2023/10/15 10:41:30;;;;;;;;;;;;;;;-128.00;-1.00;-1.00;105819;1250;1058301;-67
2023/10/15 10:43:58;;;;;;;;;;;;;;;-128.00;-1.00;-1.00;105832;1250;1044554;-67
2023/10/15 10:46:25;;;;;;;;;;;;;;;-128.00;-1.00;-1.00;105753;1250;1045996;-67
2023/10/15 10:49:04;;;;;;;;;;;;;;;-128.00;-1.00;-1.00;105857;1250;1004132;-67
2023/10/15 10:51:33;;;;;;;;;;;;;;;-128.00;-1.00;-1.00;105802;1250;1055856;-67
2023/10/15 10:53:59;;;;;;;;;;;;;;;-128.00;-1.00;-1.00;105835;1250;1059900;-67
2023/10/15 10:56:38;;;;;;;;;;;;;;;-128.00;-1.00;-1.00;105754;1250;1003683;-68
2023/10/15 10:59:06;;;;;;;;;;;;;;;-128.00;-1.00;-1.00;105828;1250;1048976;-68
2023/10/15 11:01:33;;;;;;;;;;;;;;;-128.00;-1.00;-1.00;105830;1250;1004439;-67
2023/10/15 11:03:59;;;;;;;;;;;;;;;-128.00;-1.00;-1.00;105822;1250;1004821;-68
2023/10/15 11:06:26;;;;;;;;;;;;;;;-128.00;-1.00;-1.00;105755;1250;1003983;-68
2023/10/15 11:08:52;;;;;;;;;;;;;;;-128.00;-1.00;-1.00;105814;1251;1003967;-67
2023/10/15 11:11:19;;;;;;;;;;;;;;;-128.00;-1.00;-1.00;105883;1250;1003920;-67
2023/10/15 11:13:49;;;;;;;;;;;;;;;-128.00;-1.00;-1.00;105813;1250;1004437;-68
2023/10/15 11:16:16;;;;;;;;;;;;;;;-128.00;-1.00;-1.00;105838;1250;1055411;-68
2023/10/15 11:18:45;;;;;;;;;;;;;;;-128.00;-1.00;-1.00;105800;1250;1004493;-68
2023/10/15 11:21:11;;;;;;;;;;;;;;;-128.00;-1.00;-1.00;105771;1250;1044579;-68
2023/10/15 11:23:38;;;;;;;;;;;;;;;-128.00;-1.00;-1.00;105804;1250;1004086;-68
2023/10/15 11:26:05;;;;;;;;;;;;;;;-128.00;-1.00;-1.00;105808;1250;1003503;-68
2023/10/15 11:28:31;;;;;;;;;;;;;;;-128.00;-1.00;-1.00;105799;1250;1003602;-67
2023/10/15 11:30:57;;;;;;;;;;;;;;;-128.00;-1.00;-1.00;105775;1250;1003402;-66
2023/10/15 11:33:26;;;;;;;;;;;;;;;-128.00;-1.00;-1.00;105812;1250;1004338;-70
2023/10/15 11:35:53;;;;;;;;;;;;;;;-128.00;-1.00;-1.00;105834;1250;1004671;-67
2023/10/15 11:38:20;;;;;;;;;;;;;;;-128.00;-1.00;-1.00;105912;1249;1005213;-67
2023/10/15 11:40:46;;;;;;;;;;;;;;;-128.00;-1.00;-1.00;105832;1250;1003846;-68
2023/10/15 11:43:17;;;;;;;;;;;;;;;-128.00;-1.00;-1.00;105809;1250;1004796;-67
2023/10/15 11:45:46;;;;;;;;;;;;;;;-128.00;-1.00;-1.00;105774;1250;1046655;-69
2023/10/15 11:48:13;;;;;;;;;;;;;;;-128.00;-1.00;-1.00;105825;1250;1046540;-66
2023/10/15 11:50:41;;;;;;;;;;;;;;;-128.00;-1.00;-1.00;105765;1250;1004125;-68
2023/10/15 11:53:16;;;;;;;;;;;;;;;-128.00;-1.00;-1.00;105846;1250;1003824;-67
2023/10/15 11:55:47;;;;;;;;;;;;;;;-128.00;-1.00;-1.00;105809;1250;1059131;-68
2023/10/15 11:58:16;;;;;;;;;;;;;;;-128.00;-1.00;-1.00;105811;1250;1044457;-68
2023/10/15 12:00:47;;;;;;;;;;;;;;;-128.00;-1.00;-1.00;105859;1250;1047047;-68
2023/10/15 12:03:16;;;;;;;;;;;;;;;-128.00;-1.00;-1.00;105783;1250;1065436;-68
2023/10/15 12:05:43;;;;;;;;;;;;;;;-128.00;-1.00;-1.00;105731;1250;1056494;-67
2023/10/15 12:08:12;;;;;;;;;;;;;;;-128.00;-1.00;-1.00;105805;1250;1003912;-68
2023/10/15 12:10:42;;;;;;;;;;;;;;;-128.00;-1.00;-1.00;105795;1250;1044097;-67
2023/10/15 12:13:09;;;;;;;;;;;;;;;-128.00;-1.00;-1.00;105813;1250;1046389;-67
2023/10/15 12:15:35;;;;;;;;;;;;;;;-128.00;-1.00;-1.00;105820;1250;1003434;-67
2023/10/15 12:18:02;;;;;;;;;;;;;;;-128.00;-1.00;-1.00;105823;1250;1004670;-67
2023/10/15 12:20:29;;;;;;;;;;;;;;;-128.00;-1.00;-1.00;105795;1250;1004506;-67
2023/10/15 12:22:55;;;;;;;;;;;;;;;-128.00;-1.00;-1.00;105796;1250;1004243;-67
2023/10/15 12:25:22;;;;;;;;;;;;;;;-128.00;-1.00;-1.00;105825;1250;1004519;-68
2023/10/15 12:27:48;;;;;;;;;;;;;;;-128.00;-1.00;-1.00;105770;1250;1004610;-67
2023/10/15 12:30:24;;;;;;;;;;;;;;;-128.00;-1.00;-1.00;105888;1250;1004609;-67
2023/10/15 12:32:53;;;;;;;;;;;;;;;-128.00;-1.00;-1.00;105835;1250;1059781;-68
2023/10/15 12:35:20;;;;;;;;;;;;;;;-128.00;-1.00;-1.00;105800;1250;1045618;-68
2023/10/15 12:37:47;;;;;;;;;;;;;;;-128.00;-1.00;-1.00;105807;1250;1003492;-67
2023/10/15 12:40:21;;;;;;;;;;;;;;;-128.00;-1.00;-1.00;105808;1250;1003680;-67
2023/10/15 12:42:47;;;;;;;;;;;;;;;-128.00;-1.00;-1.00;105727;1250;1054926;-67
2023/10/15 12:45:14;;;;;;;;;;;;;;;-128.00;-1.00;-1.00;105819;1250;1003584;-68
2023/10/15 12:47:41;;;;;;;;;;;;;;;-128.00;-1.00;-1.00;105806;1250;1004417;-67